Solenzara (BA 126) Air Base

Airport
ICAO code: 
LFKS
IATA Code: 
SOZ
Summary
ICAO Region: 
EUR
Territory: 
Location: 
, Corse
Serving: 
Solenzara
Elevation: 
28 ft
Coordinates: 
Aerial View: 
41° 55' 27.898" N, 9° 24' 21.6" E
Metar
Observation
LFKS 060500Z AUTO 34010KT 9999 -RA FEW030/// BKN039/// BKN047/// ///TCU 06/04 Q1004
Station
Solenzara
Date/Time
2021-12-06 05:00:00
Wind direction
340°
Wind speed
10 kts
Lowest cloud amount
few clouds
Temperature
6°C
Dew point
4°C
Humidity
86%
QNH
1004 hPa
Weather condition
light rain

Runways

Designator Length Width Surface Rops
18/36 2627 45 CON No/No
Airport map: 
Aerial View: 

SKYbrary Partners:

Safety knowledge contributed by: